sensor_id;sensor_type;location;lat;lon;timestamp;temperature;humidity
12413;DHT22;13877;18.896;-99.222;2022-12-07T00:01:51;23.40;44.90
12413;DHT22;13877;18.896;-99.222;2022-12-07T00:04:18;23.20;45.10
12413;DHT22;13877;18.896;-99.222;2022-12-07T00:06:50;23.10;45.30
12413;DHT22;13877;18.896;-99.222;2022-12-07T00:09:18;22.90;45.30
12413;DHT22;13877;18.896;-99.222;2022-12-07T00:11:49;22.90;44.90
12413;DHT22;13877;18.896;-99.222;2022-12-07T00:14:17;22.90;44.60
12413;DHT22;13877;18.896;-99.222;2022-12-07T00:16:44;22.80;46.10
12413;DHT22;13877;18.896;-99.222;2022-12-07T00:19:13;22.70;47.20
12413;DHT22;13877;18.896;-99.222;2022-12-07T00:21:40;22.60;47.90
12413;DHT22;13877;18.896;-99.222;2022-12-07T00:24:07;22.50;48.10
12413;DHT22;13877;18.896;-99.222;2022-12-07T00:26:37;22.40;46.50
12413;DHT22;13877;18.896;-99.222;2022-12-07T00:29:15;22.40;48.50
12413;DHT22;13877;18.896;-99.222;2022-12-07T00:31:42;22.30;47.60
12413;DHT22;13877;18.896;-99.222;2022-12-07T00:34:13;22.30;47.10
12413;DHT22;13877;18.896;-99.222;2022-12-07T00:36:41;22.30;46.70
12413;DHT22;13877;18.896;-99.222;2022-12-07T00:39:08;22.40;46.80
12413;DHT22;13877;18.896;-99.222;2022-12-07T00:41:35;22.50;46.10
12413;DHT22;13877;18.896;-99.222;2022-12-07T00:44:02;22.70;45.90
12413;DHT22;13877;18.896;-99.222;2022-12-07T00:46:30;22.70;46.40
12413;DHT22;13877;18.896;-99.222;2022-12-07T00:48:57;22.70;47.00
12413;DHT22;13877;18.896;-99.222;2022-12-07T00:51:25;22.60;48.50
12413;DHT22;13877;18.896;-99.222;2022-12-07T00:53:52;22.50;49.10
12413;DHT22;13877;18.896;-99.222;2022-12-07T00:56:26;22.50;50.20
12413;DHT22;13877;18.896;-99.222;2022-12-07T00:59:01;22.40;51.00
12413;DHT22;13877;18.896;-99.222;2022-12-07T01:01:31;22.20;51.50
12413;DHT22;13877;18.896;-99.222;2022-12-07T01:03:59;22.20;51.90
12413;DHT22;13877;18.896;-99.222;2022-12-07T01:06:28;22.10;52.20
12413;DHT22;13877;18.896;-99.222;2022-12-07T01:08:55;22.00;52.30
12413;DHT22;13877;18.896;-99.222;2022-12-07T01:11:29;21.90;52.40
12413;DHT22;13877;18.896;-99.222;2022-12-07T01:13:58;21.90;52.50
12413;DHT22;13877;18.896;-99.222;2022-12-07T01:16:27;21.80;52.00
12413;DHT22;13877;18.896;-99.222;2022-12-07T01:18:55;21.90;51.60
12413;DHT22;13877;18.896;-99.222;2022-12-07T01:21:25;21.90;51.70
12413;DHT22;13877;18.896;-99.222;2022-12-07T01:23:53;21.80;51.80
12413;DHT22;13877;18.896;-99.222;2022-12-07T01:26:22;21.90;51.20
12413;DHT22;13877;18.896;-99.222;2022-12-07T01:28:50;21.90;51.10
12413;DHT22;13877;18.896;-99.222;2022-12-07T01:31:20;22.00;50.90
12413;DHT22;13877;18.896;-99.222;2022-12-07T01:33:52;22.00;50.80
12413;DHT22;13877;18.896;-99.222;2022-12-07T01:36:21;21.90;50.90
12413;DHT22;13877;18.896;-99.222;2022-12-07T01:38:50;21.90;51.00
12413;DHT22;13877;18.896;-99.222;2022-12-07T01:41:20;21.90;50.90
12413;DHT22;13877;18.896;-99.222;2022-12-07T01:44:24;21.80;51.20
12413;DHT22;13877;18.896;-99.222;2022-12-07T01:47:04;21.80;51.20
12413;DHT22;13877;18.896;-99.222;2022-12-07T01:49:51;21.70;51.00
12413;DHT22;13877;18.896;-99.222;2022-12-07T01:52:26;21.70;50.90
12413;DHT22;13877;18.896;-99.222;2022-12-07T01:54:59;21.70;51.10
12413;DHT22;13877;18.896;-99.222;2022-12-07T01:57:27;21.70;50.90
12413;DHT22;13877;18.896;-99.222;2022-12-07T01:59:56;21.60;51.00
12413;DHT22;13877;18.896;-99.222;2022-12-07T02:02:27;21.60;50.90
12413;DHT22;13877;18.896;-99.222;2022-12-07T02:05:00;21.60;50.60
12413;DHT22;13877;18.896;-99.222;2022-12-07T02:07:28;21.50;51.00
12413;DHT22;13877;18.896;-99.222;2022-12-07T02:09:55;21.40;51.10
12413;DHT22;13877;18.896;-99.222;2022-12-07T02:12:23;21.40;51.10
12413;DHT22;13877;18.896;-99.222;2022-12-07T02:14:52;21.50;50.80
12413;DHT22;13877;18.896;-99.222;2022-12-07T02:17:28;21.50;50.90
12413;DHT22;13877;18.896;-99.222;2022-12-07T02:28:37;21.30;50.30
12413;DHT22;13877;18.896;-99.222;2022-12-07T02:30:42;21.20;50.50
12413;DHT22;13877;18.896;-99.222;2022-12-07T02:33:14;21.20;50.40
12413;DHT22;13877;18.896;-99.222;2022-12-07T02:35:47;21.20;49.90
12413;DHT22;13877;18.896;-99.222;2022-12-07T02:44:00;21.20;49.90
12413;DHT22;13877;18.896;-99.222;2022-12-07T02:46:43;21.20;50.20
12413;DHT22;13877;18.896;-99.222;2022-12-07T02:49:11;21.10;50.30
12413;DHT22;13877;18.896;-99.222;2022-12-07T02:51:43;21.00;50.50
12413;DHT22;13877;18.896;-99.222;2022-12-07T02:54:19;21.00;50.10
12413;DHT22;13877;18.896;-99.222;2022-12-07T02:57:10;21.00;50.10
12413;DHT22;13877;18.896;-99.222;2022-12-07T03:00:04;21.00;50.10
12413;DHT22;13877;18.896;-99.222;2022-12-07T03:05:43;21.00;49.80
12413;DHT22;13877;18.896;-99.222;2022-12-07T03:08:35;21.10;49.50
12413;DHT22;13877;18.896;-99.222;2022-12-07T03:11:11;21.00;49.30
12413;DHT22;13877;18.896;-99.222;2022-12-07T03:16:25;21.20;48.80
12413;DHT22;13877;18.896;-99.222;2022-12-07T03:19:03;21.30;48.90
12413;DHT22;13877;18.896;-99.222;2022-12-07T03:21:46;21.20;48.90
12413;DHT22;13877;18.896;-99.222;2022-12-07T03:24:31;21.20;48.60
12413;DHT22;13877;18.896;-99.222;2022-12-07T03:27:08;21.20;48.40
12413;DHT22;13877;18.896;-99.222;2022-12-07T03:29:48;21.20;48.50
12413;DHT22;13877;18.896;-99.222;2022-12-07T03:32:26;21.20;48.30
12413;DHT22;13877;18.896;-99.222;2022-12-07T03:35:14;21.20;48.50
12413;DHT22;13877;18.896;-99.222;2022-12-07T03:37:57;21.00;48.70
12413;DHT22;13877;18.896;-99.222;2022-12-07T03:43:07;21.00;48.70
12413;DHT22;13877;18.896;-99.222;2022-12-07T03:45:42;21.00;48.40
12413;DHT22;13877;18.896;-99.222;2022-12-07T03:48:35;21.00;48.60
12413;DHT22;13877;18.896;-99.222;2022-12-07T03:51:26;21.00;48.30
12413;DHT22;13877;18.896;-99.222;2022-12-07T03:54:02;20.90;48.40
12413;DHT22;13877;18.896;-99.222;2022-12-07T03:56:33;20.90;48.80
12413;DHT22;13877;18.896;-99.222;2022-12-07T03:59:01;21.00;48.20
12413;DHT22;13877;18.896;-99.222;2022-12-07T04:01:28;21.00;48.30
12413;DHT22;13877;18.896;-99.222;2022-12-07T04:03:54;20.80;48.40
12413;DHT22;13877;18.896;-99.222;2022-12-07T04:06:21;20.90;48.20
12413;DHT22;13877;18.896;-99.222;2022-12-07T04:08:48;21.00;48.20
12413;DHT22;13877;18.896;-99.222;2022-12-07T04:11:15;21.00;48.30
12413;DHT22;13877;18.896;-99.222;2022-12-07T04:13:42;20.90;48.40
12413;DHT22;13877;18.896;-99.222;2022-12-07T04:16:27;21.00;48.20
12413;DHT22;13877;18.896;-99.222;2022-12-07T04:18:54;20.90;48.00
12413;DHT22;13877;18.896;-99.222;2022-12-07T04:21:21;20.80;48.20
12413;DHT22;13877;18.896;-99.222;2022-12-07T04:23:48;20.80;48.30
12413;DHT22;13877;18.896;-99.222;2022-12-07T04:26:15;20.80;48.20
12413;DHT22;13877;18.896;-99.222;2022-12-07T04:28:41;20.80;48.20
12413;DHT22;13877;18.896;-99.222;2022-12-07T04:31:08;20.80;48.00
12413;DHT22;13877;18.896;-99.222;2022-12-07T04:33:36;20.80;48.40
12413;DHT22;13877;18.896;-99.222;2022-12-07T04:36:03;20.80;48.60
12413;DHT22;13877;18.896;-99.222;2022-12-07T04:38:30;20.60;49.20
12413;DHT22;13877;18.896;-99.222;2022-12-07T04:40:57;20.60;49.00
12413;DHT22;13877;18.896;-99.222;2022-12-07T04:43:24;20.60;49.50
12413;DHT22;13877;18.896;-99.222;2022-12-07T04:45:51;20.40;50.00
12413;DHT22;13877;18.896;-99.222;2022-12-07T04:48:18;20.30;50.60
12413;DHT22;13877;18.896;-99.222;2022-12-07T04:50:47;20.40;51.20
12413;DHT22;13877;18.896;-99.222;2022-12-07T04:53:14;20.30;51.40
12413;DHT22;13877;18.896;-99.222;2022-12-07T04:55:41;19.90;52.30
12413;DHT22;13877;18.896;-99.222;2022-12-07T04:58:08;19.70;53.20
12413;DHT22;13877;18.896;-99.222;2022-12-07T05:00:35;19.50;53.00
12413;DHT22;13877;18.896;-99.222;2022-12-07T05:03:01;19.40;53.30
12413;DHT22;13877;18.896;-99.222;2022-12-07T05:05:28;19.40;53.20
12413;DHT22;13877;18.896;-99.222;2022-12-07T05:07:55;19.50;52.60
12413;DHT22;13877;18.896;-99.222;2022-12-07T05:10:22;19.50;52.20
12413;DHT22;13877;18.896;-99.222;2022-12-07T05:12:49;19.50;52.10
12413;DHT22;13877;18.896;-99.222;2022-12-07T05:15:16;19.50;52.20
12413;DHT22;13877;18.896;-99.222;2022-12-07T05:17:43;19.50;52.20
12413;DHT22;13877;18.896;-99.222;2022-12-07T05:20:10;19.40;52.00
12413;DHT22;13877;18.896;-99.222;2022-12-07T05:22:37;19.40;52.10
12413;DHT22;13877;18.896;-99.222;2022-12-07T05:25:04;19.40;52.30
12413;DHT22;13877;18.896;-99.222;2022-12-07T05:27:31;19.30;52.10
12413;DHT22;13877;18.896;-99.222;2022-12-07T05:29:58;19.30;51.70
12413;DHT22;13877;18.896;-99.222;2022-12-07T05:32:25;19.40;51.20
12413;DHT22;13877;18.896;-99.222;2022-12-07T05:34:51;19.70;50.90
12413;DHT22;13877;18.896;-99.222;2022-12-07T05:37:21;19.70;50.70
12413;DHT22;13877;18.896;-99.222;2022-12-07T05:39:48;19.80;50.30
12413;DHT22;13877;18.896;-99.222;2022-12-07T05:42:14;19.80;50.10
12413;DHT22;13877;18.896;-99.222;2022-12-07T05:44:45;19.80;49.80
12413;DHT22;13877;18.896;-99.222;2022-12-07T05:47:13;19.90;49.60
12413;DHT22;13877;18.896;-99.222;2022-12-07T05:49:41;19.90;49.40
12413;DHT22;13877;18.896;-99.222;2022-12-07T05:52:08;20.00;49.60
12413;DHT22;13877;18.896;-99.222;2022-12-07T05:54:35;19.90;49.70
12413;DHT22;13877;18.896;-99.222;2022-12-07T05:57:02;19.90;49.30
12413;DHT22;13877;18.896;-99.222;2022-12-07T05:59:29;19.90;49.50
12413;DHT22;13877;18.896;-99.222;2022-12-07T06:04:24;19.80;49.50
12413;DHT22;13877;18.896;-99.222;2022-12-07T06:06:52;19.80;49.50
12413;DHT22;13877;18.896;-99.222;2022-12-07T06:09:20;19.70;49.60
12413;DHT22;13877;18.896;-99.222;2022-12-07T06:11:47;19.70;49.60
12413;DHT22;13877;18.896;-99.222;2022-12-07T06:14:33;19.70;49.60
12413;DHT22;13877;18.896;-99.222;2022-12-07T06:17:00;19.60;49.90
12413;DHT22;13877;18.896;-99.222;2022-12-07T06:19:27;19.50;49.70
12413;DHT22;13877;18.896;-99.222;2022-12-07T06:21:54;19.50;49.70
12413;DHT22;13877;18.896;-99.222;2022-12-07T06:24:21;19.50;49.90
12413;DHT22;13877;18.896;-99.222;2022-12-07T06:26:48;19.40;49.80
12413;DHT22;13877;18.896;-99.222;2022-12-07T06:29:16;19.30;49.90
12413;DHT22;13877;18.896;-99.222;2022-12-07T06:31:44;19.40;49.50
12413;DHT22;13877;18.896;-99.222;2022-12-07T06:34:17;19.50;49.10
12413;DHT22;13877;18.896;-99.222;2022-12-07T06:36:45;19.50;49.00
12413;DHT22;13877;18.896;-99.222;2022-12-07T06:39:21;19.50;49.30
12413;DHT22;13877;18.896;-99.222;2022-12-07T06:41:50;19.50;49.10
12413;DHT22;13877;18.896;-99.222;2022-12-07T06:44:18;19.50;48.80
12413;DHT22;13877;18.896;-99.222;2022-12-07T06:46:45;19.40;48.90
12413;DHT22;13877;18.896;-99.222;2022-12-07T06:49:12;19.40;49.20
12413;DHT22;13877;18.896;-99.222;2022-12-07T06:51:39;19.30;49.30
12413;DHT22;13877;18.896;-99.222;2022-12-07T06:54:10;19.20;49.30
12413;DHT22;13877;18.896;-99.222;2022-12-07T06:56:37;19.20;49.20
12413;DHT22;13877;18.896;-99.222;2022-12-07T06:59:05;19.20;49.30
12413;DHT22;13877;18.896;-99.222;2022-12-07T07:01:34;19.10;49.80
12413;DHT22;13877;18.896;-99.222;2022-12-07T07:04:01;18.90;50.40
12413;DHT22;13877;18.896;-99.222;2022-12-07T07:06:28;18.70;50.40
12413;DHT22;13877;18.896;-99.222;2022-12-07T07:08:55;18.60;50.90
12413;DHT22;13877;18.896;-99.222;2022-12-07T07:11:22;18.80;50.90
12413;DHT22;13877;18.896;-99.222;2022-12-07T07:13:49;18.60;51.20
12413;DHT22;13877;18.896;-99.222;2022-12-07T07:16:16;18.30;52.40
12413;DHT22;13877;18.896;-99.222;2022-12-07T07:18:43;18.00;53.20
12413;DHT22;13877;18.896;-99.222;2022-12-07T07:21:10;17.70;54.70
12413;DHT22;13877;18.896;-99.222;2022-12-07T07:23:37;17.70;54.90
12413;DHT22;13877;18.896;-99.222;2022-12-07T07:26:04;17.60;54.80
12413;DHT22;13877;18.896;-99.222;2022-12-07T07:28:31;17.50;55.40
12413;DHT22;13877;18.896;-99.222;2022-12-07T07:30:57;17.30;56.00
12413;DHT22;13877;18.896;-99.222;2022-12-07T07:33:24;17.40;55.90
12413;DHT22;13877;18.896;-99.222;2022-12-07T07:35:51;17.70;55.80
12413;DHT22;13877;18.896;-99.222;2022-12-07T07:38:18;17.60;55.80
12413;DHT22;13877;18.896;-99.222;2022-12-07T07:40:45;17.50;56.30
12413;DHT22;13877;18.896;-99.222;2022-12-07T07:43:12;17.30;56.80
12413;DHT22;13877;18.896;-99.222;2022-12-07T07:45:39;17.30;56.80
12413;DHT22;13877;18.896;-99.222;2022-12-07T07:48:06;17.00;57.70
12413;DHT22;13877;18.896;-99.222;2022-12-07T07:50:33;16.80;58.20
12413;DHT22;13877;18.896;-99.222;2022-12-07T07:53:00;16.70;58.20
12413;DHT22;13877;18.896;-99.222;2022-12-07T07:55:27;16.90;57.80
12413;DHT22;13877;18.896;-99.222;2022-12-07T07:57:54;17.00;57.30
12413;DHT22;13877;18.896;-99.222;2022-12-07T08:00:21;16.80;57.20
12413;DHT22;13877;18.896;-99.222;2022-12-07T08:02:48;16.70;57.60
12413;DHT22;13877;18.896;-99.222;2022-12-07T08:05:16;16.70;57.80
12413;DHT22;13877;18.896;-99.222;2022-12-07T08:07:43;16.50;58.10
12413;DHT22;13877;18.896;-99.222;2022-12-07T08:10:12;16.40;58.40
12413;DHT22;13877;18.896;-99.222;2022-12-07T08:12:41;16.40;58.30
12413;DHT22;13877;18.896;-99.222;2022-12-07T08:15:28;16.60;57.60
12413;DHT22;13877;18.896;-99.222;2022-12-07T08:17:55;17.00;56.50
12413;DHT22;13877;18.896;-99.222;2022-12-07T08:20:23;17.10;55.70
12413;DHT22;13877;18.896;-99.222;2022-12-07T08:22:49;17.30;54.80
12413;DHT22;13877;18.896;-99.222;2022-12-07T08:25:17;17.40;54.60
12413;DHT22;13877;18.896;-99.222;2022-12-07T08:27:43;17.50;54.10
12413;DHT22;13877;18.896;-99.222;2022-12-07T08:30:10;17.60;53.20
12413;DHT22;13877;18.896;-99.222;2022-12-07T08:32:37;17.70;52.60
12413;DHT22;13877;18.896;-99.222;2022-12-07T08:35:06;17.70;52.40
12413;DHT22;13877;18.896;-99.222;2022-12-07T08:37:33;17.60;52.20
12413;DHT22;13877;18.896;-99.222;2022-12-07T08:40:00;17.60;51.80
12413;DHT22;13877;18.896;-99.222;2022-12-07T08:42:27;17.70;51.00
12413;DHT22;13877;18.896;-99.222;2022-12-07T08:44:57;17.70;50.80
12413;DHT22;13877;18.896;-99.222;2022-12-07T08:47:25;17.60;51.20
12413;DHT22;13877;18.896;-99.222;2022-12-07T08:49:53;17.60;50.70
12413;DHT22;13877;18.896;-99.222;2022-12-07T08:52:20;17.60;50.20
12413;DHT22;13877;18.896;-99.222;2022-12-07T08:54:48;17.50;50.20
12413;DHT22;13877;18.896;-99.222;2022-12-07T08:57:15;17.40;50.50
12413;DHT22;13877;18.896;-99.222;2022-12-07T08:59:42;17.20;50.80
12413;DHT22;13877;18.896;-99.222;2022-12-07T09:02:08;16.90;51.70
12413;DHT22;13877;18.896;-99.222;2022-12-07T09:04:36;16.60;52.20
12413;DHT22;13877;18.896;-99.222;2022-12-07T09:07:03;16.50;52.70
12413;DHT22;13877;18.896;-99.222;2022-12-07T09:09:30;16.50;52.60
12413;DHT22;13877;18.896;-99.222;2022-12-07T09:11:57;16.50;51.40
12413;DHT22;13877;18.896;-99.222;2022-12-07T09:14:24;16.80;51.50
12413;DHT22;13877;18.896;-99.222;2022-12-07T09:16:51;17.00;52.20
12413;DHT22;13877;18.896;-99.222;2022-12-07T09:19:18;16.80;53.50
12413;DHT22;13877;18.896;-99.222;2022-12-07T09:21:45;16.30;54.30
12413;DHT22;13877;18.896;-99.222;2022-12-07T09:24:15;15.80;55.70
12413;DHT22;13877;18.896;-99.222;2022-12-07T09:26:42;15.50;56.00
12413;DHT22;13877;18.896;-99.222;2022-12-07T09:29:08;15.60;53.10
12413;DHT22;13877;18.896;-99.222;2022-12-07T09:31:37;15.90;51.50
12413;DHT22;13877;18.896;-99.222;2022-12-07T09:34:04;16.10;50.40
12413;DHT22;13877;18.896;-99.222;2022-12-07T09:36:32;16.40;50.60
12413;DHT22;13877;18.896;-99.222;2022-12-07T09:38:59;16.50;52.60
12413;DHT22;13877;18.896;-99.222;2022-12-07T09:41:30;16.30;53.80
12413;DHT22;13877;18.896;-99.222;2022-12-07T09:44:12;16.10;53.90
12413;DHT22;13877;18.896;-99.222;2022-12-07T09:46:42;15.90;53.70
12413;DHT22;13877;18.896;-99.222;2022-12-07T09:49:16;15.80;54.40
12413;DHT22;13877;18.896;-99.222;2022-12-07T09:51:44;15.50;54.80
12413;DHT22;13877;18.896;-99.222;2022-12-07T09:54:16;15.10;55.30
12413;DHT22;13877;18.896;-99.222;2022-12-07T09:56:44;14.80;56.10
12413;DHT22;13877;18.896;-99.222;2022-12-07T09:59:16;14.70;55.30
12413;DHT22;13877;18.896;-99.222;2022-12-07T10:01:47;14.80;52.80
12413;DHT22;13877;18.896;-99.222;2022-12-07T10:04:20;15.00;52.70
12413;DHT22;13877;18.896;-99.222;2022-12-07T10:06:48;15.10;48.90
12413;DHT22;13877;18.896;-99.222;2022-12-07T10:09:20;15.80;44.90
12413;DHT22;13877;18.896;-99.222;2022-12-07T10:12:08;16.20;45.00
12413;DHT22;13877;18.896;-99.222;2022-12-07T10:14:39;16.20;44.40
12413;DHT22;13877;18.896;-99.222;2022-12-07T10:17:35;15.80;46.30
12413;DHT22;13877;18.896;-99.222;2022-12-07T10:20:33;16.00;43.00
12413;DHT22;13877;18.896;-99.222;2022-12-07T10:25:29;16.30;43.80
12413;DHT22;13877;18.896;-99.222;2022-12-07T10:28:11;16.20;44.50
12413;DHT22;13877;18.896;-99.222;2022-12-07T10:30:57;16.00;45.00
12413;DHT22;13877;18.896;-99.222;2022-12-07T10:36:14;15.30;44.60
12413;DHT22;13877;18.896;-99.222;2022-12-07T10:38:48;15.30;39.40
12413;DHT22;13877;18.896;-99.222;2022-12-07T10:41:15;15.50;38.50
12413;DHT22;13877;18.896;-99.222;2022-12-07T10:43:51;15.70;36.60
12413;DHT22;13877;18.896;-99.222;2022-12-07T10:49:30;15.60;37.60
12413;DHT22;13877;18.896;-99.222;2022-12-07T10:55:08;15.00;38.10
12413;DHT22;13877;18.896;-99.222;2022-12-07T11:00:23;15.30;37.00
12413;DHT22;13877;18.896;-99.222;2022-12-07T11:05:59;15.00;37.70
12413;DHT22;13877;18.896;-99.222;2022-12-07T11:08:44;15.00;36.10
12413;DHT22;13877;18.896;-99.222;2022-12-07T11:17:28;15.20;35.10
12413;DHT22;13877;18.896;-99.222;2022-12-07T11:23:11;15.20;34.20
12413;DHT22;13877;18.896;-99.222;2022-12-07T11:28:42;15.50;31.90
12413;DHT22;13877;18.896;-99.222;2022-12-07T11:31:29;15.50;33.00
12413;DHT22;13877;18.896;-99.222;2022-12-07T11:34:08;15.40;33.50
12413;DHT22;13877;18.896;-99.222;2022-12-07T11:36:43;15.30;33.60
12413;DHT22;13877;18.896;-99.222;2022-12-07T11:39:33;15.20;32.90
12413;DHT22;13877;18.896;-99.222;2022-12-07T11:42:09;15.10;32.50
12413;DHT22;13877;18.896;-99.222;2022-12-07T11:50:37;15.30;29.80
12413;DHT22;13877;18.896;-99.222;2022-12-07T11:56:35;15.20;29.80
12413;DHT22;13877;18.896;-99.222;2022-12-07T11:59:04;15.10;29.60
12413;DHT22;13877;18.896;-99.222;2022-12-07T12:01:56;15.00;30.60
12413;DHT22;13877;18.896;-99.222;2022-12-07T12:06:57;14.70;30.60
12413;DHT22;13877;18.896;-99.222;2022-12-07T12:09:34;14.60;30.10
12413;DHT22;13877;18.896;-99.222;2022-12-07T12:12:16;14.70;30.80
12413;DHT22;13877;18.896;-99.222;2022-12-07T12:20:00;14.80;29.20
12413;DHT22;13877;18.896;-99.222;2022-12-07T12:22:40;14.90;30.20
12413;DHT22;13877;18.896;-99.222;2022-12-07T12:27:47;15.00;28.80
12413;DHT22;13877;18.896;-99.222;2022-12-07T12:33:19;15.10;28.90
12413;DHT22;13877;18.896;-99.222;2022-12-07T12:51:51;15.00;26.60
12413;DHT22;13877;18.896;-99.222;2022-12-07T12:54:23;15.10;25.50
12413;DHT22;13877;18.896;-99.222;2022-12-07T12:59:28;15.20;25.80
12413;DHT22;13877;18.896;-99.222;2022-12-07T13:07:49;15.10;27.20
12413;DHT22;13877;18.896;-99.222;2022-12-07T13:15:56;14.90;28.50
12413;DHT22;13877;18.896;-99.222;2022-12-07T13:18:42;15.00;28.50
12413;DHT22;13877;18.896;-99.222;2022-12-07T13:23:55;15.00;29.20
12413;DHT22;13877;18.896;-99.222;2022-12-07T13:29:21;15.60;29.60
12413;DHT22;13877;18.896;-99.222;2022-12-07T13:31:55;15.90;29.30
12413;DHT22;13877;18.896;-99.222;2022-12-07T13:34:42;16.10;28.40
12413;DHT22;13877;18.896;-99.222;2022-12-07T13:37:21;16.50;29.30
12413;DHT22;13877;18.896;-99.222;2022-12-07T13:40:12;16.70;27.90
12413;DHT22;13877;18.896;-99.222;2022-12-07T13:42:44;17.00;27.30
12413;DHT22;13877;18.896;-99.222;2022-12-07T13:45:31;17.30;27.50
12413;DHT22;13877;18.896;-99.222;2022-12-07T13:48:31;17.50;26.90
12413;DHT22;13877;18.896;-99.222;2022-12-07T13:51:00;17.80;27.40
12413;DHT22;13877;18.896;-99.222;2022-12-07T13:53:27;18.10;27.70
12413;DHT22;13877;18.896;-99.222;2022-12-07T13:56:01;18.20;27.50
12413;DHT22;13877;18.896;-99.222;2022-12-07T13:58:30;18.40;28.20
12413;DHT22;13877;18.896;-99.222;2022-12-07T14:00:59;18.70;28.10
12413;DHT22;13877;18.896;-99.222;2022-12-07T14:03:35;18.80;27.80
12413;DHT22;13877;18.896;-99.222;2022-12-07T14:06:16;19.00;27.80
12413;DHT22;13877;18.896;-99.222;2022-12-07T14:08:45;19.20;28.40
12413;DHT22;13877;18.896;-99.222;2022-12-07T14:11:20;19.50;28.30
12413;DHT22;13877;18.896;-99.222;2022-12-07T14:13:59;19.80;29.30
12413;DHT22;13877;18.896;-99.222;2022-12-07T14:16:35;19.80;28.60
12413;DHT22;13877;18.896;-99.222;2022-12-07T14:19:05;20.10;28.10
12413;DHT22;13877;18.896;-99.222;2022-12-07T14:21:34;20.40;27.80
12413;DHT22;13877;18.896;-99.222;2022-12-07T14:26:45;20.80;27.70
12413;DHT22;13877;18.896;-99.222;2022-12-07T14:29:31;20.90;27.70
12413;DHT22;13877;18.896;-99.222;2022-12-07T14:32:21;21.30;28.30
12413;DHT22;13877;18.896;-99.222;2022-12-07T14:35:09;21.50;29.50
12413;DHT22;13877;18.896;-99.222;2022-12-07T14:37:38;21.60;29.80
12413;DHT22;13877;18.896;-99.222;2022-12-07T14:40:06;22.00;30.70
12413;DHT22;13877;18.896;-99.222;2022-12-07T14:42:34;22.30;31.00
12413;DHT22;13877;18.896;-99.222;2022-12-07T14:45:02;22.30;30.50
12413;DHT22;13877;18.896;-99.222;2022-12-07T14:47:29;22.20;31.80
12413;DHT22;13877;18.896;-99.222;2022-12-07T14:49:56;22.40;32.90
12413;DHT22;13877;18.896;-99.222;2022-12-07T14:52:29;22.80;32.10
12413;DHT22;13877;18.896;-99.222;2022-12-07T14:54:59;22.50;32.70
12413;DHT22;13877;18.896;-99.222;2022-12-07T14:57:26;22.30;32.80
12413;DHT22;13877;18.896;-99.222;2022-12-07T14:59:53;22.60;33.90
12413;DHT22;13877;18.896;-99.222;2022-12-07T15:02:20;22.70;35.60
12413;DHT22;13877;18.896;-99.222;2022-12-07T15:04:46;23.10;35.50
12413;DHT22;13877;18.896;-99.222;2022-12-07T15:07:19;23.50;36.20
12413;DHT22;13877;18.896;-99.222;2022-12-07T15:09:47;23.50;37.50
12413;DHT22;13877;18.896;-99.222;2022-12-07T15:12:14;23.30;37.60
12413;DHT22;13877;18.896;-99.222;2022-12-07T15:14:41;23.40;39.00
12413;DHT22;13877;18.896;-99.222;2022-12-07T15:17:11;23.20;40.40
12413;DHT22;13877;18.896;-99.222;2022-12-07T15:19:39;23.50;40.40
12413;DHT22;13877;18.896;-99.222;2022-12-07T15:22:05;23.70;41.30
12413;DHT22;13877;18.896;-99.222;2022-12-07T15:24:34;24.00;42.10
12413;DHT22;13877;18.896;-99.222;2022-12-07T15:27:00;23.80;41.30
12413;DHT22;13877;18.896;-99.222;2022-12-07T15:29:28;24.00;41.50
12413;DHT22;13877;18.896;-99.222;2022-12-07T15:31:55;24.30;41.70
12413;DHT22;13877;18.896;-99.222;2022-12-07T15:34:27;24.50;40.80
12413;DHT22;13877;18.896;-99.222;2022-12-07T15:36:55;24.40;40.50
12413;DHT22;13877;18.896;-99.222;2022-12-07T15:39:22;24.50;38.60
12413;DHT22;13877;18.896;-99.222;2022-12-07T15:41:49;24.70;41.30
12413;DHT22;13877;18.896;-99.222;2022-12-07T15:44:16;24.60;39.90
12413;DHT22;13877;18.896;-99.222;2022-12-07T15:47:02;24.60;39.50
12413;DHT22;13877;18.896;-99.222;2022-12-07T15:49:30;24.10;37.30
12413;DHT22;13877;18.896;-99.222;2022-12-07T15:51:58;24.30;37.20
12413;DHT22;13877;18.896;-99.222;2022-12-07T15:54:27;24.00;37.30
12413;DHT22;13877;18.896;-99.222;2022-12-07T15:56:55;23.60;38.60
12413;DHT22;13877;18.896;-99.222;2022-12-07T15:59:23;24.20;35.40
12413;DHT22;13877;18.896;-99.222;2022-12-07T16:01:51;24.40;36.90
12413;DHT22;13877;18.896;-99.222;2022-12-07T16:04:17;24.50;36.80
12413;DHT22;13877;18.896;-99.222;2022-12-07T16:06:45;24.50;36.80
12413;DHT22;13877;18.896;-99.222;2022-12-07T16:09:12;24.40;35.60
12413;DHT22;13877;18.896;-99.222;2022-12-07T16:11:39;24.70;37.00
12413;DHT22;13877;18.896;-99.222;2022-12-07T16:14:06;24.80;37.00
12413;DHT22;13877;18.896;-99.222;2022-12-07T16:16:33;25.10;37.80
12413;DHT22;13877;18.896;-99.222;2022-12-07T16:19:00;25.20;35.60
12413;DHT22;13877;18.896;-99.222;2022-12-07T16:21:27;25.50;35.40
12413;DHT22;13877;18.896;-99.222;2022-12-07T16:23:56;25.20;37.10
12413;DHT22;13877;18.896;-99.222;2022-12-07T16:26:24;25.40;36.60
12413;DHT22;13877;18.896;-99.222;2022-12-07T16:28:52;24.90;36.00
12413;DHT22;13877;18.896;-99.222;2022-12-07T16:31:22;24.10;37.90
12413;DHT22;13877;18.896;-99.222;2022-12-07T16:33:50;24.80;38.60
12413;DHT22;13877;18.896;-99.222;2022-12-07T16:36:19;25.10;37.40
12413;DHT22;13877;18.896;-99.222;2022-12-07T16:38:48;25.20;38.50
12413;DHT22;13877;18.896;-99.222;2022-12-07T16:41:15;25.20;37.90
12413;DHT22;13877;18.896;-99.222;2022-12-07T16:43:42;25.60;36.40
12413;DHT22;13877;18.896;-99.222;2022-12-07T16:46:09;25.40;35.30
12413;DHT22;13877;18.896;-99.222;2022-12-07T16:48:37;26.00;35.70
12413;DHT22;13877;18.896;-99.222;2022-12-07T16:51:09;25.70;33.50
12413;DHT22;13877;18.896;-99.222;2022-12-07T16:53:38;25.50;36.00
12413;DHT22;13877;18.896;-99.222;2022-12-07T16:56:14;25.50;33.20
12413;DHT22;13877;18.896;-99.222;2022-12-07T16:58:42;25.80;32.80
12413;DHT22;13877;18.896;-99.222;2022-12-07T17:01:16;26.80;33.20
12413;DHT22;13877;18.896;-99.222;2022-12-07T17:03:45;26.00;33.10
12413;DHT22;13877;18.896;-99.222;2022-12-07T17:08:44;26.40;32.00
12413;DHT22;13877;18.896;-99.222;2022-12-07T17:11:20;26.20;30.40
12413;DHT22;13877;18.896;-99.222;2022-12-07T17:13:49;27.10;33.40
12413;DHT22;13877;18.896;-99.222;2022-12-07T17:16:34;26.60;34.20
12413;DHT22;13877;18.896;-99.222;2022-12-07T17:19:10;26.50;33.20
12413;DHT22;13877;18.896;-99.222;2022-12-07T17:21:37;27.20;33.40
12413;DHT22;13877;18.896;-99.222;2022-12-07T17:24:07;27.80;30.80